createdAt,value
2022-10-20T00:00:58.415Z,102150.13
2022-10-20T00:03:27.294Z,102158.09
2022-10-20T00:05:56.800Z,102158.13
2022-10-20T00:08:24.843Z,102151.03
2022-10-20T00:10:56.222Z,102160.72
2022-10-20T00:13:24.295Z,102160.69
2022-10-20T00:15:53.228Z,102162.41
2022-10-20T00:18:22.232Z,102163.19
2022-10-20T00:20:50.659Z,102152.53
2022-10-20T00:23:20.240Z,102148.09
2022-10-20T00:25:48.214Z,102134.91
2022-10-20T00:28:16.157Z,102136.66
2022-10-20T00:30:44.170Z,102144.63
2022-10-20T00:33:12.125Z,102145.47
2022-10-20T00:35:40.296Z,102147.28
2022-10-20T00:38:09.430Z,102144.63
2022-10-20T00:40:38.765Z,102145.47
2022-10-20T00:43:10.697Z,102149.06
2022-10-20T00:45:38.806Z,102142.91
2022-10-20T00:48:13.383Z,102135.84
2022-10-20T00:50:44.740Z,102126.19
2022-10-20T00:53:13.321Z,102135.00
2022-10-20T00:55:44.712Z,102127.06
2022-10-20T00:58:13.192Z,102125.34
2022-10-20T01:00:44.245Z,102122.66
2022-10-20T01:03:17.792Z,102120.03
2022-10-20T01:05:45.762Z,102104.16
2022-10-20T01:08:13.813Z,102097.03
2022-10-20T01:10:52.701Z,102102.34
2022-10-20T01:13:30.496Z,102105.97
2022-10-20T01:16:07.017Z,102107.78
2022-10-20T01:18:42.594Z,102096.28
2022-10-20T01:21:39.521Z,102091.00
2022-10-20T01:24:31.649Z,102085.78
2022-10-20T01:27:20.317Z,102082.19
2022-10-20T01:29:54.150Z,102080.41
2022-10-20T01:32:26.449Z,102078.72
2022-10-20T01:35:04.321Z,102082.22
2022-10-20T01:37:49.031Z,102070.72
2022-10-20T01:40:23.305Z,102069.84
2022-10-20T01:42:55.205Z,102074.22
2022-10-20T01:45:26.968Z,102068.94
2022-10-20T01:47:55.804Z,102066.19
2022-10-20T01:50:25.614Z,102058.28
2022-10-20T01:52:56.367Z,102050.38
2022-10-20T01:55:25.122Z,102048.63
2022-10-20T01:58:07.973Z,102038.94
2022-10-20T02:00:37.680Z,102051.31
2022-10-20T02:03:24.733Z,102039.84
2022-10-20T02:06:09.044Z,102038.00
2022-10-20T02:08:43.727Z,102035.31
2022-10-20T02:11:20.865Z,102031.78
2022-10-20T02:13:52.576Z,102029.94
2022-10-20T02:16:24.662Z,102023.78
2022-10-20T02:18:53.545Z,102014.97
2022-10-20T02:21:21.669Z,102007.84
2022-10-20T02:23:51.903Z,102013.13
2022-10-20T02:26:22.258Z,102006.94
2022-10-20T02:28:57.995Z,101998.00
2022-10-20T02:31:26.974Z,101997.06
2022-10-20T02:33:57.606Z,101982.06
2022-10-20T02:36:28.681Z,101984.63
2022-10-20T02:38:56.958Z,101981.03
2022-10-20T02:41:24.909Z,101981.00
2022-10-20T02:43:54.213Z,101977.44
2022-10-20T02:46:22.192Z,101980.06
2022-10-20T02:48:50.138Z,101976.56
2022-10-20T02:51:18.714Z,101973.91
2022-10-20T02:53:46.916Z,101984.47
2022-10-20T02:56:15.013Z,101977.44
2022-10-20T02:58:43.058Z,101983.56
2022-10-20T03:01:12.505Z,101981.81
2022-10-20T03:03:40.638Z,101980.88
2022-10-20T03:06:10.616Z,101987.91
2022-10-20T03:08:38.764Z,101981.66
2022-10-20T03:11:07.045Z,101980.75
2022-10-20T03:13:35.020Z,101979.78
2022-10-20T03:16:03.362Z,101978.03
2022-10-20T03:18:32.692Z,101976.25
2022-10-20T03:21:00.661Z,101970.00
2022-10-20T03:23:28.668Z,101971.75
2022-10-20T03:26:02.779Z,101964.69
2022-10-20T03:28:31.061Z,101969.06
2022-10-20T03:30:59.405Z,101969.03
2022-10-20T03:33:27.416Z,101969.91
2022-10-20T03:35:56.759Z,101968.97
2022-10-20T03:38:25.103Z,101961.91
2022-10-20T03:40:53.111Z,101969.91
2022-10-20T03:43:21.102Z,101961.06
2022-10-20T03:45:49.173Z,101962.81
2022-10-20T03:48:17.513Z,101954.03
2022-10-20T03:50:45.454Z,101955.78
2022-10-20T03:53:15.541Z,101947.00
2022-10-20T03:55:43.509Z,101945.19
2022-10-20T03:58:11.475Z,101946.91
2022-10-20T04:00:39.484Z,101951.34
2022-10-20T04:03:07.482Z,101945.09
2022-10-20T04:05:35.687Z,101946.91
2022-10-20T04:08:04.230Z,101944.25
2022-10-20T04:10:33.678Z,101933.63
2022-10-20T04:13:02.532Z,101931.91
2022-10-20T04:15:30.506Z,101931.88
2022-10-20T04:17:58.489Z,101938.97
2022-10-20T04:20:26.769Z,101934.50
2022-10-20T04:22:54.726Z,101939.75
2022-10-20T04:25:22.719Z,101937.03
2022-10-20T04:27:52.071Z,101936.13
2022-10-20T04:30:20.174Z,101932.63
2022-10-20T04:32:48.172Z,101915.75
2022-10-20T04:35:16.293Z,101920.19
2022-10-20T04:37:44.960Z,101925.84
2022-10-20T04:40:13.359Z,101913.38
2022-10-20T04:42:41.305Z,101912.41
2022-10-20T04:45:11.471Z,101912.38
2022-10-20T04:47:39.881Z,101912.66
2022-10-20T04:50:08.430Z,101905.81
2022-10-20T04:52:36.597Z,101905.66
2022-10-20T04:55:04.958Z,101894.22
2022-10-20T04:57:33.049Z,101894.06
2022-10-20T05:00:01.059Z,101883.44
2022-10-20T05:02:31.179Z,101880.22
2022-10-20T05:04:59.116Z,101882.88
2022-10-20T05:07:27.084Z,101875.69
2022-10-20T05:09:55.101Z,101867.81
2022-10-20T05:12:23.160Z,101869.47
2022-10-20T05:14:51.132Z,101862.28
2022-10-20T05:17:19.060Z,101856.97
2022-10-20T05:19:48.378Z,101858.63
2022-10-20T05:22:16.388Z,101857.78
2022-10-20T05:24:44.377Z,101849.91
2022-10-20T05:27:12.327Z,101847.16
2022-10-20T05:29:40.283Z,101839.47
2022-10-20T05:32:08.255Z,101822.78
2022-10-20T05:34:36.186Z,101815.50
2022-10-20T05:37:05.537Z,101813.00
2022-10-20T05:39:33.618Z,101814.94
2022-10-20T05:42:01.590Z,101813.22
2022-10-20T05:44:29.535Z,101815.84
2022-10-20T05:46:57.507Z,101824.50
2022-10-20T05:49:25.473Z,101818.31
2022-10-20T05:51:53.507Z,101812.19
2022-10-20T05:54:22.859Z,101807.97
2022-10-20T05:56:50.821Z,101805.34
2022-10-20T05:59:18.812Z,101810.56
2022-10-20T06:01:49.519Z,101802.31
2022-10-20T06:04:19.819Z,101794.19
2022-10-20T06:06:48.847Z,101786.25
2022-10-20T06:09:17.892Z,101789.72
2022-10-20T06:11:47.334Z,101787.06
2022-10-20T06:14:15.903Z,101795.09
2022-10-20T06:16:44.342Z,101799.56
2022-10-20T06:19:12.346Z,101796.09
2022-10-20T06:21:40.286Z,101802.31
2022-10-20T06:24:08.462Z,101798.84
2022-10-20T06:26:37.417Z,101785.66
2022-10-20T06:29:08.572Z,101779.53
2022-10-20T06:31:39.013Z,101779.63
2022-10-20T06:34:09.116Z,101789.38
2022-10-20T06:36:37.843Z,101791.22
2022-10-20T06:39:07.730Z,101807.97
2022-10-20T06:41:36.192Z,101800.03
2022-10-20T06:44:04.436Z,101807.16
2022-10-20T06:46:36.224Z,101794.00
2022-10-20T06:49:06.194Z,101795.78
2022-10-20T06:51:35.288Z,101809.03
2022-10-20T06:54:03.431Z,101809.06
2022-10-20T06:56:33.831Z,101807.34
2022-10-20T06:59:02.840Z,101807.38
2022-10-20T07:01:32.204Z,101787.03
2022-10-20T07:04:03.945Z,101799.50
2022-10-20T07:06:33.878Z,101798.59
2022-10-20T07:09:03.902Z,101795.06
2022-10-20T07:11:32.981Z,101798.63
2022-10-20T07:14:02.644Z,101802.19
2022-10-20T07:16:32.835Z,101799.56
2022-10-20T07:19:03.389Z,101796.03
2022-10-20T07:21:35.883Z,101785.44
2022-10-20T07:24:07.147Z,101788.13
2022-10-20T07:26:37.059Z,101785.47
2022-10-20T07:29:05.970Z,101781.06
2022-10-20T07:31:36.134Z,101782.84
2022-10-20T07:34:23.711Z,101789.94
2022-10-20T07:36:53.281Z,101789.06
2022-10-20T07:39:21.565Z,101773.19
2022-10-20T07:41:49.636Z,101758.13
2022-10-20T07:44:18.265Z,101748.44
2022-10-20T07:46:46.338Z,101734.25
2022-10-20T07:52:03.740Z,101728.06
2022-10-20T07:54:31.831Z,101719.19
2022-10-20T07:56:59.794Z,101724.53
2022-10-20T07:59:28.486Z,101713.91
2022-10-20T08:01:59.694Z,101715.66
2022-10-20T08:04:31.374Z,101719.19
2022-10-20T08:06:59.497Z,101711.19
2022-10-20T08:09:27.471Z,101706.75
2022-10-20T08:11:56.026Z,101700.53
2022-10-20T08:14:26.893Z,101697.00
2022-10-20T08:16:55.156Z,101692.53
2022-10-20T08:22:12.952Z,101686.28
2022-10-20T08:24:41.259Z,101678.22
2022-10-20T08:27:09.241Z,101677.28
2022-10-20T08:29:37.342Z,101679.94
2022-10-20T08:32:05.888Z,101670.16
2022-10-20T08:34:33.850Z,101659.47
2022-10-20T08:37:01.789Z,101647.13
2022-10-20T08:39:31.189Z,101650.63
2022-10-20T08:42:08.444Z,101637.31
2022-10-20T08:44:39.779Z,101644.38
2022-10-20T08:47:27.993Z,101647.00
2022-10-20T08:49:59.555Z,101637.19
2022-10-20T08:52:28.515Z,101628.25
2022-10-20T08:54:58.817Z,101618.38
2022-10-20T08:57:29.479Z,101608.66
2022-10-20T09:00:06.851Z,101604.25
2022-10-20T09:02:36.860Z,101603.25
2022-10-20T09:05:07.846Z,101600.59
2022-10-20T09:07:38.025Z,101602.28
2022-10-20T09:10:18.580Z,101588.84
2022-10-20T09:12:48.488Z,101586.09
2022-10-20T09:15:18.329Z,101587.78
2022-10-20T09:17:50.635Z,101585.06
2022-10-20T09:20:23.619Z,101587.63
2022-10-20T09:22:51.707Z,101583.97
2022-10-20T09:25:25.453Z,101572.22
2022-10-20T09:27:54.706Z,101559.81
2022-10-20T09:30:25.975Z,101554.44
2022-10-20T09:32:54.042Z,101557.00
2022-10-20T09:35:26.007Z,101555.97
2022-10-20T09:38:00.078Z,101553.34
2022-10-20T09:40:29.742Z,101555.97
2022-10-20T09:43:03.339Z,101556.91
2022-10-20T09:45:33.629Z,101556.81
2022-10-20T09:48:07.459Z,101562.06
2022-10-20T09:50:39.397Z,101555.63
2022-10-20T09:53:16.445Z,101545.88
2022-10-20T09:55:49.692Z,101548.50
2022-10-20T09:58:24.116Z,101548.47
2022-10-20T10:01:01.548Z,101561.69
2022-10-20T10:03:30.641Z,101551.09
2022-10-20T10:06:00.086Z,101553.69
2022-10-20T10:08:30.740Z,101555.34
2022-10-20T10:11:02.546Z,101548.97
2022-10-20T10:13:32.998Z,101551.56
2022-10-20T10:16:05.130Z,101553.31
2022-10-20T10:18:33.754Z,101554.84
2022-10-20T10:21:05.046Z,101547.78
2022-10-20T10:23:36.519Z,101546.75
2022-10-20T10:26:50.008Z,101547.63
2022-10-20T10:29:27.325Z,101528.69
2022-10-20T10:32:00.401Z,101519.78
2022-10-20T10:34:43.786Z,101515.28
2022-10-20T10:37:14.960Z,101502.72
2022-10-20T10:39:43.374Z,101482.44
2022-10-20T10:42:29.709Z,101501.63
2022-10-20T10:45:09.356Z,101484.69
2022-10-20T10:48:13.117Z,101473.88
2022-10-20T10:50:50.144Z,101481.88
2022-10-20T10:53:28.001Z,101471.81
2022-10-20T10:56:03.968Z,101463.69
2022-10-20T10:58:43.049Z,101459.13
2022-10-20T11:01:35.947Z,101449.13
2022-10-20T11:04:30.469Z,101446.34
2022-10-20T11:07:07.313Z,101447.16
2022-10-20T11:09:45.954Z,101433.63
2022-10-20T11:12:38.788Z,101425.47
2022-10-20T11:15:23.166Z,101419.22
2022-10-20T11:18:00.613Z,101413.00
2022-10-20T11:20:39.119Z,101403.25
2022-10-20T11:23:22.751Z,101404.03
2022-10-20T11:25:55.865Z,101398.94
2022-10-20T11:28:32.208Z,101397.91
2022-10-20T11:31:00.552Z,101397.69
2022-10-20T11:33:43.144Z,101404.41
2022-10-20T11:36:16.727Z,101390.06
2022-10-20T11:38:50.377Z,101376.50
2022-10-20T11:41:23.821Z,101385.00
2022-10-20T11:43:58.537Z,101368.78
2022-10-20T11:46:35.884Z,101368.00
2022-10-20T11:49:06.440Z,101347.75
2022-10-20T11:52:12.948Z,101359.84
2022-10-20T11:55:05.912Z,101361.72
2022-10-20T11:57:47.002Z,101354.09
2022-10-20T12:00:23.316Z,101347.16
2022-10-20T12:03:15.357Z,101346.88
2022-10-20T12:06:18.823Z,101350.41
2022-10-20T12:09:03.979Z,101348.50
2022-10-20T12:11:38.582Z,101351.28
2022-10-20T12:14:18.790Z,101346.94
2022-10-20T12:17:07.346Z,101329.72
2022-10-20T12:19:36.492Z,101333.31
2022-10-20T12:22:07.558Z,101312.88
2022-10-20T12:24:39.830Z,101306.84
2022-10-20T12:27:20.384Z,101299.97
2022-10-20T12:30:27.612Z,101295.28
2022-10-20T12:33:18.279Z,101294.25
2022-10-20T12:36:13.321Z,101275.44
2022-10-20T12:38:43.012Z,101264.03
2022-10-20T12:41:25.027Z,101255.94
2022-10-20T12:43:54.913Z,101243.47
2022-10-20T12:46:27.495Z,101244.81
2022-10-20T12:49:00.060Z,101242.19
2022-10-20T12:51:36.783Z,101242.03
2022-10-20T12:54:09.901Z,101234.00
2022-10-20T12:56:42.121Z,101236.06
2022-10-20T12:59:39.255Z,101229.84
2022-10-20T13:03:01.297Z,101212.75
2022-10-20T13:05:48.432Z,101210.13
2022-10-20T13:08:32.474Z,101208.69
2022-10-20T13:11:38.534Z,101206.22
2022-10-20T13:14:28.268Z,101196.28
2022-10-20T13:17:04.505Z,101192.69
2022-10-20T13:19:39.705Z,101190.22
2022-10-20T13:22:39.459Z,101193.97
2022-10-20T13:25:15.547Z,101194.66
2022-10-20T13:27:43.647Z,101183.69
2022-10-20T13:30:21.308Z,101180.31
2022-10-20T13:33:11.345Z,101180.16
2022-10-20T13:35:54.791Z,101185.38
2022-10-20T13:38:28.300Z,101185.56
2022-10-20T13:41:03.329Z,101190.16
2022-10-20T13:43:42.317Z,101186.41
2022-10-20T13:46:32.946Z,101178.59
2022-10-20T13:49:19.783Z,101177.19
2022-10-20T13:51:52.090Z,101172.38
2022-10-20T13:54:25.301Z,101161.47
2022-10-20T13:56:53.732Z,101154.78
2022-10-20T14:02:01.142Z,101167.34
2022-10-20T14:04:31.086Z,101149.47
2022-10-20T14:07:04.168Z,101143.16
2022-10-20T14:09:32.166Z,101148.34
2022-10-20T14:12:03.863Z,101136.84
2022-10-20T14:14:33.035Z,101149.22
2022-10-20T14:17:05.416Z,101132.34
2022-10-20T14:19:34.565Z,101141.88
2022-10-20T14:22:13.990Z,101136.31
2022-10-20T14:24:44.658Z,101141.59
2022-10-20T14:27:16.746Z,101133.63
2022-10-20T14:29:45.872Z,101121.13
2022-10-20T14:32:19.121Z,101125.03
2022-10-20T14:34:57.496Z,101130.59
2022-10-20T14:37:31.843Z,101115.44
2022-10-20T14:40:02.300Z,101116.56
2022-10-20T14:42:33.282Z,101119.44
2022-10-20T14:45:04.027Z,101097.25
2022-10-20T14:47:40.239Z,101102.00
2022-10-20T14:50:19.972Z,101104.94
2022-10-20T14:52:52.917Z,101111.31
2022-10-20T14:55:32.098Z,101111.44
2022-10-20T14:58:00.471Z,101113.34
2022-10-20T15:00:34.841Z,101106.91
2022-10-20T15:03:07.877Z,101102.50
2022-10-20T15:05:48.167Z,101097.28
2022-10-20T15:08:22.877Z,101098.53
2022-10-20T15:10:50.957Z,101109.13
2022-10-20T15:13:27.725Z,101113.75
2022-10-20T15:15:57.379Z,101108.41
2022-10-20T15:18:27.824Z,101116.50
2022-10-20T15:20:57.265Z,101114.81
2022-10-20T15:23:27.396Z,101119.50
2022-10-20T15:25:59.070Z,101118.84
2022-10-20T15:28:35.316Z,101112.63
2022-10-20T15:31:05.296Z,101117.38
2022-10-20T15:33:35.013Z,101110.53
2022-10-20T15:36:02.960Z,101104.53
2022-10-20T15:38:31.208Z,101099.38
2022-10-20T15:43:34.757Z,101105.66
2022-10-20T15:46:04.109Z,101097.97
2022-10-20T15:48:32.076Z,101097.19
2022-10-20T15:51:01.450Z,101101.50
2022-10-20T15:53:29.377Z,101105.06
2022-10-20T15:55:57.374Z,101094.47
2022-10-20T15:58:25.439Z,101096.28
2022-10-20T16:00:53.465Z,101107.88
2022-10-20T16:03:21.459Z,101101.84
2022-10-20T16:05:49.434Z,101108.28
2022-10-20T16:08:18.772Z,101109.25
2022-10-20T16:10:46.829Z,101116.44
2022-10-20T16:13:15.780Z,101127.94
2022-10-20T16:15:43.812Z,101121.75
2022-10-20T16:18:12.753Z,101118.09
2022-10-20T16:20:40.840Z,101118.19
2022-10-20T16:23:08.833Z,101118.22
2022-10-20T16:25:40.381Z,101115.56
2022-10-20T16:28:08.920Z,101116.50
2022-10-20T16:30:37.199Z,101111.25
2022-10-20T16:33:05.410Z,101110.34
2022-10-20T16:35:33.465Z,101101.50
2022-10-20T16:38:02.067Z,101106.84
2022-10-20T16:40:30.036Z,101103.19
2022-10-20T16:43:00.306Z,101104.13
2022-10-20T16:45:28.335Z,101102.47
2022-10-20T16:47:56.390Z,101101.56
2022-10-20T16:50:24.360Z,101106.75
2022-10-20T16:52:52.325Z,101095.34
2022-10-20T16:55:20.339Z,101097.13
2022-10-20T16:57:48.321Z,101091.88
2022-10-20T17:00:18.109Z,101093.50
2022-10-20T17:02:47.438Z,101090.88
2022-10-20T17:05:16.571Z,101086.56
2022-10-20T17:07:44.576Z,101084.59
2022-10-20T17:10:12.591Z,101080.22
2022-10-20T17:12:40.724Z,101077.50
2022-10-20T17:15:09.812Z,101076.59
2022-10-20T17:17:39.718Z,101067.41
2022-10-20T17:20:09.188Z,101064.72
2022-10-20T17:22:37.272Z,101055.88
2022-10-20T17:25:06.310Z,101050.59
2022-10-20T17:27:34.416Z,101062.03
2022-10-20T17:30:02.434Z,101059.31
2022-10-20T17:32:30.426Z,101045.94
2022-10-20T17:34:59.789Z,101044.97
2022-10-20T17:37:27.794Z,101033.53
2022-10-20T17:39:55.716Z,101038.03
2022-10-20T17:42:23.790Z,101033.72
2022-10-20T17:44:51.789Z,101032.84
2022-10-20T17:47:19.749Z,101034.78
2022-10-20T17:49:47.696Z,101033.91
2022-10-20T17:52:17.065Z,101028.47
2022-10-20T17:54:45.106Z,101026.75
2022-10-20T17:57:13.566Z,101018.78
2022-10-20T17:59:52.467Z,101012.69
2022-10-20T18:02:23.637Z,101021.63
2022-10-20T18:04:52.027Z,101011.78
2022-10-20T18:07:21.438Z,101007.22
2022-10-20T18:09:49.425Z,101007.06
2022-10-20T18:12:17.865Z,101000.16
2022-10-20T18:14:46.112Z,100992.09
2022-10-20T18:17:14.092Z,101002.53
2022-10-20T18:19:42.197Z,100984.09
2022-10-20T18:22:10.183Z,100991.28
2022-10-20T18:24:39.640Z,100992.28
2022-10-20T18:27:07.644Z,100997.63
2022-10-20T18:29:35.630Z,100996.00
2022-10-20T18:32:03.593Z,101001.41
2022-10-20T18:34:31.662Z,100998.84
2022-10-20T18:37:03.361Z,100988.00
2022-10-20T18:39:31.740Z,100985.50
2022-10-20T18:42:01.143Z,100977.56
2022-10-20T18:47:03.314Z,100979.38
2022-10-20T18:49:31.374Z,100966.22
2022-10-20T18:51:59.524Z,100964.50
2022-10-20T18:54:28.140Z,100967.22
2022-10-20T18:56:56.155Z,100967.13
2022-10-20T18:59:25.548Z,100946.00
2022-10-20T19:01:53.523Z,100958.56
2022-10-20T19:04:21.615Z,100969.13
2022-10-20T19:06:50.083Z,100961.16
2022-10-20T19:09:20.262Z,100957.53
2022-10-20T19:14:20.818Z,100941.53
2022-10-20T19:16:51.027Z,100937.28
2022-10-20T19:19:19.307Z,100941.53
2022-10-20T19:21:47.372Z,100939.97
2022-10-20T19:24:18.003Z,100934.75
2022-10-20T19:26:56.796Z,100939.25
2022-10-20T19:29:30.824Z,100934.88
2022-10-20T19:32:02.268Z,100930.50
2022-10-20T19:34:32.329Z,100937.69
2022-10-20T19:37:00.732Z,100935.81
2022-10-20T19:39:31.219Z,100930.66
2022-10-20T19:42:00.794Z,100936.78
2022-10-20T19:44:29.375Z,100938.66
2022-10-20T19:46:57.999Z,100929.84
2022-10-20T19:49:28.113Z,100928.03
2022-10-20T19:51:56.401Z,100922.75
2022-10-20T19:54:24.773Z,100919.28
2022-10-20T19:56:52.843Z,100906.81
2022-10-20T19:59:20.829Z,100907.75
2022-10-20T20:01:49.835Z,100911.34
2022-10-20T20:04:17.890Z,100916.66
2022-10-20T20:06:47.285Z,100908.75
2022-10-20T20:09:16.486Z,100906.13
2022-10-20T20:11:45.350Z,100917.75
2022-10-20T20:14:16.052Z,100909.91
2022-10-20T20:16:45.831Z,100887.06
2022-10-20T20:19:15.464Z,100918.72
2022-10-20T20:21:43.430Z,100912.59
2022-10-20T20:24:14.135Z,100909.06
2022-10-20T20:26:43.327Z,100909.97
2022-10-20T20:29:11.657Z,100899.31
2022-10-20T20:31:39.736Z,100895.78
2022-10-20T20:34:07.816Z,100867.69
2022-10-20T20:36:35.767Z,100884.06
2022-10-20T20:39:03.866Z,100880.44
2022-10-20T20:41:33.146Z,100878.78
2022-10-20T20:44:05.407Z,100867.25
2022-10-20T20:46:36.274Z,100866.44
2022-10-20T20:49:04.532Z,100852.16
2022-10-20T20:51:33.959Z,100851.25
2022-10-20T20:54:02.925Z,100847.78
2022-10-20T20:56:31.026Z,100866.44
2022-10-20T20:59:00.352Z,100874.53
2022-10-20T21:01:31.581Z,100882.50
2022-10-20T21:04:01.444Z,100886.97
2022-10-20T21:06:37.881Z,100886.91
2022-10-20T21:09:12.722Z,100885.13
2022-10-20T21:11:42.812Z,100887.06
2022-10-20T21:14:12.209Z,100884.16
2022-10-20T21:16:40.178Z,100869.13
2022-10-20T21:19:10.497Z,100880.72
2022-10-20T21:21:43.366Z,100867.38
2022-10-20T21:24:12.951Z,100853.16
2022-10-20T21:26:41.327Z,100837.94
2022-10-20T21:29:09.348Z,100838.94
2022-10-20T21:31:40.352Z,100843.44
2022-10-20T21:34:08.433Z,100843.41
2022-10-20T21:36:38.574Z,100851.44
2022-10-20T21:39:08.374Z,100850.50
2022-10-20T21:41:37.326Z,100859.31
2022-10-20T21:44:07.134Z,100866.41
2022-10-20T21:46:37.279Z,100871.63
2022-10-20T21:49:09.075Z,100864.38
2022-10-20T21:51:39.310Z,100857.31
2022-10-20T21:54:08.926Z,100863.50
2022-10-20T21:56:37.921Z,100847.56
2022-10-20T21:59:06.554Z,100846.66
2022-10-20T22:01:35.066Z,100831.66
2022-10-20T22:04:03.125Z,100830.81
2022-10-20T22:06:32.520Z,100830.00
2022-10-20T22:09:00.622Z,100834.50
2022-10-20T22:11:31.302Z,100838.13
2022-10-20T22:13:59.972Z,100831.78
2022-10-20T22:16:29.930Z,100834.56
2022-10-20T22:18:59.432Z,100835.44
2022-10-20T22:21:28.997Z,100855.88
2022-10-20T22:24:00.145Z,100847.81
2022-10-20T22:26:29.200Z,100840.78
2022-10-20T22:28:58.283Z,100831.84
2022-10-20T22:31:27.237Z,100825.78
2022-10-20T22:33:57.248Z,100816.19
2022-10-20T22:36:26.417Z,100822.31
2022-10-20T22:38:54.597Z,100830.44
2022-10-20T22:41:24.149Z,100835.00
2022-10-20T22:43:52.254Z,100833.63
2022-10-20T22:46:21.753Z,100816.97
2022-10-20T22:48:49.925Z,100837.78
2022-10-20T22:51:18.587Z,100839.66
2022-10-20T22:53:46.587Z,100828.31
2022-10-20T22:56:16.485Z,100828.50
2022-10-20T22:58:46.366Z,100827.66
2022-10-20T23:01:16.913Z,100825.03
2022-10-20T23:03:45.306Z,100831.34
2022-10-20T23:06:15.493Z,100835.75
2022-10-20T23:08:45.588Z,100825.38
2022-10-20T23:13:50.958Z,100846.41
2022-10-20T23:16:19.171Z,100842.84
2022-10-20T23:18:47.621Z,100835.97
2022-10-20T23:21:15.867Z,100844.03
2022-10-20T23:23:44.247Z,100836.13
2022-10-20T23:26:13.151Z,100840.50
2022-10-20T23:28:41.519Z,100838.69
2022-10-20T23:31:12.642Z,100819.38
2022-10-20T23:33:42.114Z,100836.13
2022-10-20T23:36:10.673Z,100845.16
2022-10-20T23:38:38.658Z,100846.88
2022-10-20T23:41:07.189Z,100833.75
2022-10-20T23:46:05.039Z,100847.66
2022-10-20T23:48:34.369Z,100844.06
2022-10-20T23:51:02.330Z,100844.06
2022-10-20T23:53:30.537Z,100839.56
2022-10-20T23:55:58.656Z,100837.06
2022-10-20T23:58:27.022Z,100844.97
